10:37 MESZ | 04.05.2026 Profi-Wetter| Mobile Seite| Kontakt| Impressum| Datenschutz
Social

Wetterstation Klodzko

aktuelles Wetter
  Temperatur Wetter Niederschlag Luftdruck Wind
Mo, 10:00 Uhr 19° - 1014 hPa 25 km/h S
Mo, 09:00 Uhr 18° - 1014 hPa 29 km/h S
Mo, 08:00 Uhr 17° 0 mm 1014 hPa 32 km/h S

Böen 40 km/h
Mo, 07:00 Uhr 15° - 1014 hPa 14 km/h S
Mo, 06:00 Uhr 14° - 1015 hPa 11 km/h S
Mo, 05:00 Uhr 14° - 1015 hPa 18 km/h S

Böen 32 km/h
Mo, 04:00 Uhr 14° - 1015 hPa 18 km/h S
Mo, 03:00 Uhr 15° - 1015 hPa 18 km/h S

Böen 32 km/h
Mo, 02:00 Uhr 15° 0 mm 1015 hPa 22 km/h S
Mo, 01:00 Uhr 15° - 1015 hPa 14 km/h S
Mo, 00:00 Uhr 15° - 1015 hPa 7 km/h SO
So, 23:00 Uhr 17° - 1015 hPa 29 km/h S
So, 22:00 Uhr 17° - 1015 hPa 22 km/h S
So, 21:00 Uhr 18° - 1015 hPa 22 km/h SO
So, 20:00 Uhr 19° 0 mm 1014 hPa 25 km/h S
So, 19:00 Uhr 21° - 1014 hPa 25 km/h S
So, 18:00 Uhr 23° - 1014 hPa 29 km/h S
So, 17:00 Uhr 23° - 1014 hPa 25 km/h S
So, 16:00 Uhr 24° - 1014 hPa 29 km/h S
So, 15:00 Uhr 24° - 1015 hPa 25 km/h S

Alle Zeitangaben MESZ